Dubuque Regional Airport Dubuque US
ICAO: KDBQ
IATA: DBQ
Category: Large
Scheduled Services: Yes

Elevation: 1077 ft
TransAlt. 18000 ft.

Airport Communications:
ATIS:127.25
CHICAGO CNTR:127
CTAF:119.5
GND:121.8
FORT DODGE RDO:122.05
TWR:119.5
UNICOM:122.95

KDBQ Zoom In..

If you have problems with the map follow the link
https://www.worldairports.se/pages/airport.php?
ICAO=KDBQ

Runways:

(A) RW 13 length 6502 ft width 100 ft
---- / hdg 132

(B) RW 18 length 6327 ft width 150 ft
---- / hdg 177

(C) RW 31 length 6502 ft width 100 ft
ILS 108.70 / hdg 312

(D) RW 36 length 6327 ft width 150 ft
ILS 110.90 / hdg 357

Location; KDBQ
Day. 22 / Time. 15.53 Zulu
* Altimeter: 30.39
* Temperature: -05° c. -23°f.
* Wind from: 110° Speed 04 kn.
Dewpoint: -10° c.
Visibility: 9 Statute Miles.
Clouds: Clear (automated report).

KDBQ 221553Z 11004KT 9SM CLR M05/M10 A3039 RMK AO2 SLP312 T10501100


Wind From 110°
Speed 04 kn.

 
 
jpsmedia.com for Web Design worldairports.se 2019   terms of use